sensor_id;sensor_type;location;lat;lon;timestamp;temperature;humidity
22071;DHT22;11200;51.488;6.668;2022-08-20T00:02:23;22.00;99.90
22071;DHT22;11200;51.488;6.668;2022-08-20T00:04:49;21.90;99.90
22071;DHT22;11200;51.488;6.668;2022-08-20T00:07:15;21.90;99.90
22071;DHT22;11200;51.488;6.668;2022-08-20T00:09:41;21.90;99.90
22071;DHT22;11200;51.488;6.668;2022-08-20T00:12:07;21.90;99.90
22071;DHT22;11200;51.488;6.668;2022-08-20T00:14:34;21.90;99.90
22071;DHT22;11200;51.488;6.668;2022-08-20T00:17:00;21.90;99.90
22071;DHT22;11200;51.488;6.668;2022-08-20T00:19:26;21.80;99.90
22071;DHT22;11200;51.488;6.668;2022-08-20T00:21:51;21.80;99.90
22071;DHT22;11200;51.488;6.668;2022-08-20T00:24:17;21.80;99.90
22071;DHT22;11200;51.488;6.668;2022-08-20T00:26:43;21.80;99.90
22071;DHT22;11200;51.488;6.668;2022-08-20T00:29:08;21.80;99.90
22071;DHT22;11200;51.488;6.668;2022-08-20T00:31:34;21.70;99.90
22071;DHT22;11200;51.488;6.668;2022-08-20T00:33:59;21.70;99.90
22071;DHT22;11200;51.488;6.668;2022-08-20T00:36:25;21.70;99.90
22071;DHT22;11200;51.488;6.668;2022-08-20T00:38:51;21.70;99.90
22071;DHT22;11200;51.488;6.668;2022-08-20T00:41:23;21.70;99.90
22071;DHT22;11200;51.488;6.668;2022-08-20T00:44:15;21.60;99.90
22071;DHT22;11200;51.488;6.668;2022-08-20T00:46:44;21.60;99.90
22071;DHT22;11200;51.488;6.668;2022-08-20T00:49:25;21.60;99.90
22071;DHT22;11200;51.488;6.668;2022-08-20T00:52:03;21.60;99.90
22071;DHT22;11200;51.488;6.668;2022-08-20T00:54:52;21.50;99.90
22071;DHT22;11200;51.488;6.668;2022-08-20T00:57:23;21.50;99.90
22071;DHT22;11200;51.488;6.668;2022-08-20T00:59:51;21.50;99.90
22071;DHT22;11200;51.488;6.668;2022-08-20T01:02:18;21.40;99.90
22071;DHT22;11200;51.488;6.668;2022-08-20T01:04:46;21.40;99.90
22071;DHT22;11200;51.488;6.668;2022-08-20T01:07:17;21.40;99.90
22071;DHT22;11200;51.488;6.668;2022-08-20T01:09:45;21.40;99.90
22071;DHT22;11200;51.488;6.668;2022-08-20T01:12:12;21.40;99.90
22071;DHT22;11200;51.488;6.668;2022-08-20T01:14:40;21.40;99.90
22071;DHT22;11200;51.488;6.668;2022-08-20T01:17:23;21.30;99.90
22071;DHT22;11200;51.488;6.668;2022-08-20T01:20:10;21.30;99.90
22071;DHT22;11200;51.488;6.668;2022-08-20T01:22:48;21.30;99.90
22071;DHT22;11200;51.488;6.668;2022-08-20T01:25:51;21.30;99.90
22071;DHT22;11200;51.488;6.668;2022-08-20T01:28:24;21.20;99.90
22071;DHT22;11200;51.488;6.668;2022-08-20T01:30:51;21.20;99.90
22071;DHT22;11200;51.488;6.668;2022-08-20T01:33:18;21.20;99.90
22071;DHT22;11200;51.488;6.668;2022-08-20T01:35:44;21.20;99.90
22071;DHT22;11200;51.488;6.668;2022-08-20T01:38:10;21.20;99.90
22071;DHT22;11200;51.488;6.668;2022-08-20T01:41:06;21.10;99.90
22071;DHT22;11200;51.488;6.668;2022-08-20T01:43:34;21.10;99.90
22071;DHT22;11200;51.488;6.668;2022-08-20T01:46:00;21.10;99.90
22071;DHT22;11200;51.488;6.668;2022-08-20T01:48:26;21.10;99.90
22071;DHT22;11200;51.488;6.668;2022-08-20T01:51:05;21.00;99.90
22071;DHT22;11200;51.488;6.668;2022-08-20T01:53:36;21.00;99.90
22071;DHT22;11200;51.488;6.668;2022-08-20T01:56:06;21.00;99.90
22071;DHT22;11200;51.488;6.668;2022-08-20T01:58:34;21.00;99.90
22071;DHT22;11200;51.488;6.668;2022-08-20T02:01:00;20.90;99.90
22071;DHT22;11200;51.488;6.668;2022-08-20T02:03:26;20.90;99.90
22071;DHT22;11200;51.488;6.668;2022-08-20T02:05:52;20.90;99.90
22071;DHT22;11200;51.488;6.668;2022-08-20T02:08:19;20.90;99.90
22071;DHT22;11200;51.488;6.668;2022-08-20T02:10:46;20.90;99.90
22071;DHT22;11200;51.488;6.668;2022-08-20T02:13:12;20.90;99.90
22071;DHT22;11200;51.488;6.668;2022-08-20T02:15:38;20.90;99.90
22071;DHT22;11200;51.488;6.668;2022-08-20T02:18:13;20.80;99.90
22071;DHT22;11200;51.488;6.668;2022-08-20T02:20:41;20.80;99.90
22071;DHT22;11200;51.488;6.668;2022-08-20T02:23:08;20.80;99.90
22071;DHT22;11200;51.488;6.668;2022-08-20T02:25:36;20.80;99.90
22071;DHT22;11200;51.488;6.668;2022-08-20T02:28:07;20.80;99.90
22071;DHT22;11200;51.488;6.668;2022-08-20T02:30:38;20.80;99.90
22071;DHT22;11200;51.488;6.668;2022-08-20T02:33:07;20.80;99.90
22071;DHT22;11200;51.488;6.668;2022-08-20T02:35:34;20.80;99.90
22071;DHT22;11200;51.488;6.668;2022-08-20T02:38:01;20.80;99.90
22071;DHT22;11200;51.488;6.668;2022-08-20T02:40:30;20.80;99.90
22071;DHT22;11200;51.488;6.668;2022-08-20T02:43:00;20.70;99.90
22071;DHT22;11200;51.488;6.668;2022-08-20T02:45:27;20.80;99.90
22071;DHT22;11200;51.488;6.668;2022-08-20T02:47:53;20.70;99.90
22071;DHT22;11200;51.488;6.668;2022-08-20T02:50:22;20.80;99.90
22071;DHT22;11200;51.488;6.668;2022-08-20T02:52:48;20.70;99.90
22071;DHT22;11200;51.488;6.668;2022-08-20T02:55:14;20.70;99.90
22071;DHT22;11200;51.488;6.668;2022-08-20T02:57:40;20.70;99.90
22071;DHT22;11200;51.488;6.668;2022-08-20T03:00:13;20.70;99.90
22071;DHT22;11200;51.488;6.668;2022-08-20T03:02:40;20.70;99.90
22071;DHT22;11200;51.488;6.668;2022-08-20T03:05:06;20.70;99.90
22071;DHT22;11200;51.488;6.668;2022-08-20T03:07:40;20.70;99.90
22071;DHT22;11200;51.488;6.668;2022-08-20T03:10:06;20.70;99.90
22071;DHT22;11200;51.488;6.668;2022-08-20T03:12:32;20.70;99.90
22071;DHT22;11200;51.488;6.668;2022-08-20T03:14:57;20.70;99.90
22071;DHT22;11200;51.488;6.668;2022-08-20T03:17:23;20.70;99.90
22071;DHT22;11200;51.488;6.668;2022-08-20T03:19:48;20.60;99.90
22071;DHT22;11200;51.488;6.668;2022-08-20T03:22:14;20.60;99.90
22071;DHT22;11200;51.488;6.668;2022-08-20T03:24:39;20.60;99.90
22071;DHT22;11200;51.488;6.668;2022-08-20T03:27:05;20.60;99.90
22071;DHT22;11200;51.488;6.668;2022-08-20T03:29:31;20.60;99.90
22071;DHT22;11200;51.488;6.668;2022-08-20T03:31:56;20.60;99.90
22071;DHT22;11200;51.488;6.668;2022-08-20T03:34:22;20.60;99.90
22071;DHT22;11200;51.488;6.668;2022-08-20T03:36:47;20.60;99.90
22071;DHT22;11200;51.488;6.668;2022-08-20T03:39:14;20.60;99.90
22071;DHT22;11200;51.488;6.668;2022-08-20T03:41:40;20.60;99.90
22071;DHT22;11200;51.488;6.668;2022-08-20T03:44:06;20.60;99.90
22071;DHT22;11200;51.488;6.668;2022-08-20T03:46:32;20.60;99.90
22071;DHT22;11200;51.488;6.668;2022-08-20T03:48:58;20.60;99.90
22071;DHT22;11200;51.488;6.668;2022-08-20T03:51:24;20.90;99.90
22071;DHT22;11200;51.488;6.668;2022-08-20T03:53:50;20.60;99.90
22071;DHT22;11200;51.488;6.668;2022-08-20T03:56:15;20.60;99.90
22071;DHT22;11200;51.488;6.668;2022-08-20T03:58:42;20.50;99.90
22071;DHT22;11200;51.488;6.668;2022-08-20T04:01:07;20.50;99.90
22071;DHT22;11200;51.488;6.668;2022-08-20T04:03:33;20.50;99.90
22071;DHT22;11200;51.488;6.668;2022-08-20T04:05:59;20.60;99.90
22071;DHT22;11200;51.488;6.668;2022-08-20T04:08:27;20.50;99.90
22071;DHT22;11200;51.488;6.668;2022-08-20T04:10:57;20.50;99.90
22071;DHT22;11200;51.488;6.668;2022-08-20T04:13:25;20.50;99.90
22071;DHT22;11200;51.488;6.668;2022-08-20T04:15:51;20.50;99.90
22071;DHT22;11200;51.488;6.668;2022-08-20T04:18:22;20.50;99.90
22071;DHT22;11200;51.488;6.668;2022-08-20T04:20:49;20.50;99.90
22071;DHT22;11200;51.488;6.668;2022-08-20T04:23:16;20.50;99.90
22071;DHT22;11200;51.488;6.668;2022-08-20T04:25:43;20.50;99.90
22071;DHT22;11200;51.488;6.668;2022-08-20T04:28:18;20.50;99.90
22071;DHT22;11200;51.488;6.668;2022-08-20T04:30:53;20.50;99.90
22071;DHT22;11200;51.488;6.668;2022-08-20T04:33:20;20.50;99.90
22071;DHT22;11200;51.488;6.668;2022-08-20T04:35:46;20.50;99.90
22071;DHT22;11200;51.488;6.668;2022-08-20T04:38:15;20.40;99.90
22071;DHT22;11200;51.488;6.668;2022-08-20T04:40:41;20.40;99.90
22071;DHT22;11200;51.488;6.668;2022-08-20T04:46:19;20.40;99.90
22071;DHT22;11200;51.488;6.668;2022-08-20T04:48:45;20.40;99.90
22071;DHT22;11200;51.488;6.668;2022-08-20T04:51:10;20.40;99.90
22071;DHT22;11200;51.488;6.668;2022-08-20T04:53:39;20.40;99.90
22071;DHT22;11200;51.488;6.668;2022-08-20T04:56:05;20.40;99.90
22071;DHT22;11200;51.488;6.668;2022-08-20T04:58:35;20.40;99.90
22071;DHT22;11200;51.488;6.668;2022-08-20T05:01:04;20.40;99.90
22071;DHT22;11200;51.488;6.668;2022-08-20T05:03:31;20.40;99.90
22071;DHT22;11200;51.488;6.668;2022-08-20T05:05:57;20.40;99.90
22071;DHT22;11200;51.488;6.668;2022-08-20T05:08:24;20.40;99.90
22071;DHT22;11200;51.488;6.668;2022-08-20T05:10:51;20.30;99.90
22071;DHT22;11200;51.488;6.668;2022-08-20T05:13:17;20.50;99.90
22071;DHT22;11200;51.488;6.668;2022-08-20T05:15:43;20.30;99.90
22071;DHT22;11200;51.488;6.668;2022-08-20T05:18:11;20.30;99.90
22071;DHT22;11200;51.488;6.668;2022-08-20T05:20:39;20.30;99.90
22071;DHT22;11200;51.488;6.668;2022-08-20T05:23:07;20.40;99.90
22071;DHT22;11200;51.488;6.668;2022-08-20T05:25:34;20.40;99.90
22071;DHT22;11200;51.488;6.668;2022-08-20T05:28:15;20.30;99.90
22071;DHT22;11200;51.488;6.668;2022-08-20T05:30:43;20.30;99.90
22071;DHT22;11200;51.488;6.668;2022-08-20T05:33:10;20.30;99.90
22071;DHT22;11200;51.488;6.668;2022-08-20T05:35:39;20.40;99.90
22071;DHT22;11200;51.488;6.668;2022-08-20T05:38:08;20.30;99.90
22071;DHT22;11200;51.488;6.668;2022-08-20T05:40:36;20.30;99.90
22071;DHT22;11200;51.488;6.668;2022-08-20T05:43:02;20.40;99.90
22071;DHT22;11200;51.488;6.668;2022-08-20T05:45:29;20.40;99.90
22071;DHT22;11200;51.488;6.668;2022-08-20T05:47:55;20.40;99.90
22071;DHT22;11200;51.488;6.668;2022-08-20T05:50:22;20.40;99.90
22071;DHT22;11200;51.488;6.668;2022-08-20T05:52:50;20.40;99.90
22071;DHT22;11200;51.488;6.668;2022-08-20T05:55:16;20.40;99.90
22071;DHT22;11200;51.488;6.668;2022-08-20T05:57:42;20.40;99.90
22071;DHT22;11200;51.488;6.668;2022-08-20T06:00:11;20.40;99.90
22071;DHT22;11200;51.488;6.668;2022-08-20T06:02:37;20.40;99.90
22071;DHT22;11200;51.488;6.668;2022-08-20T06:05:23;20.40;99.90
22071;DHT22;11200;51.488;6.668;2022-08-20T06:07:49;20.40;99.90
22071;DHT22;11200;51.488;6.668;2022-08-20T06:10:17;20.40;99.90
22071;DHT22;11200;51.488;6.668;2022-08-20T06:12:45;20.40;99.90
22071;DHT22;11200;51.488;6.668;2022-08-20T06:15:12;20.40;99.90
22071;DHT22;11200;51.488;6.668;2022-08-20T06:17:38;20.40;99.90
22071;DHT22;11200;51.488;6.668;2022-08-20T06:20:06;20.40;99.90
22071;DHT22;11200;51.488;6.668;2022-08-20T06:22:33;20.50;99.90
22071;DHT22;11200;51.488;6.668;2022-08-20T06:24:59;20.50;99.90
22071;DHT22;11200;51.488;6.668;2022-08-20T06:27:25;20.50;99.90
22071;DHT22;11200;51.488;6.668;2022-08-20T06:29:51;20.50;99.90
22071;DHT22;11200;51.488;6.668;2022-08-20T06:32:18;20.50;99.90
22071;DHT22;11200;51.488;6.668;2022-08-20T06:34:45;20.60;99.90
22071;DHT22;11200;51.488;6.668;2022-08-20T06:37:15;20.60;99.90
22071;DHT22;11200;51.488;6.668;2022-08-20T06:39:42;20.60;99.90
22071;DHT22;11200;51.488;6.668;2022-08-20T06:42:08;20.60;99.90
22071;DHT22;11200;51.488;6.668;2022-08-20T06:44:35;20.60;99.90
22071;DHT22;11200;51.488;6.668;2022-08-20T06:47:02;20.70;99.90
22071;DHT22;11200;51.488;6.668;2022-08-20T06:49:29;20.70;99.90
22071;DHT22;11200;51.488;6.668;2022-08-20T06:51:55;20.70;99.90
22071;DHT22;11200;51.488;6.668;2022-08-20T06:54:20;20.70;99.90
22071;DHT22;11200;51.488;6.668;2022-08-20T06:56:46;20.70;99.90
22071;DHT22;11200;51.488;6.668;2022-08-20T06:59:12;20.80;99.90
22071;DHT22;11200;51.488;6.668;2022-08-20T07:01:37;20.80;99.90
22071;DHT22;11200;51.488;6.668;2022-08-20T07:04:03;20.80;99.90
22071;DHT22;11200;51.488;6.668;2022-08-20T07:06:30;20.80;99.90
22071;DHT22;11200;51.488;6.668;2022-08-20T07:08:55;20.80;99.90
22071;DHT22;11200;51.488;6.668;2022-08-20T07:11:21;20.90;99.90
22071;DHT22;11200;51.488;6.668;2022-08-20T07:13:49;20.90;99.90
22071;DHT22;11200;51.488;6.668;2022-08-20T07:16:15;20.90;99.90
22071;DHT22;11200;51.488;6.668;2022-08-20T07:18:41;20.90;99.90
22071;DHT22;11200;51.488;6.668;2022-08-20T07:21:06;20.90;99.90
22071;DHT22;11200;51.488;6.668;2022-08-20T07:23:32;21.00;99.90
22071;DHT22;11200;51.488;6.668;2022-08-20T07:25:58;21.00;99.90
22071;DHT22;11200;51.488;6.668;2022-08-20T07:28:26;21.00;99.90
22071;DHT22;11200;51.488;6.668;2022-08-20T07:30:56;21.10;99.90
22071;DHT22;11200;51.488;6.668;2022-08-20T07:33:41;21.10;99.90
22071;DHT22;11200;51.488;6.668;2022-08-20T07:36:08;21.10;99.90
22071;DHT22;11200;51.488;6.668;2022-08-20T07:38:34;21.10;99.90
22071;DHT22;11200;51.488;6.668;2022-08-20T07:41:06;21.20;99.90
22071;DHT22;11200;51.488;6.668;2022-08-20T07:43:33;21.20;99.90
22071;DHT22;11200;51.488;6.668;2022-08-20T07:46:00;21.20;99.90
22071;DHT22;11200;51.488;6.668;2022-08-20T07:48:30;21.30;99.90
22071;DHT22;11200;51.488;6.668;2022-08-20T07:50:57;21.30;99.90
22071;DHT22;11200;51.488;6.668;2022-08-20T07:53:24;21.40;99.90
22071;DHT22;11200;51.488;6.668;2022-08-20T07:55:50;21.40;99.90
22071;DHT22;11200;51.488;6.668;2022-08-20T07:58:17;21.50;99.90
22071;DHT22;11200;51.488;6.668;2022-08-20T08:00:44;21.50;99.90
22071;DHT22;11200;51.488;6.668;2022-08-20T08:03:11;21.50;99.90
22071;DHT22;11200;51.488;6.668;2022-08-20T08:05:39;21.60;99.90
22071;DHT22;11200;51.488;6.668;2022-08-20T08:08:11;21.60;99.90
22071;DHT22;11200;51.488;6.668;2022-08-20T08:10:39;21.60;99.90
22071;DHT22;11200;51.488;6.668;2022-08-20T08:13:07;21.60;99.90
22071;DHT22;11200;51.488;6.668;2022-08-20T08:15:35;21.60;99.90
22071;DHT22;11200;51.488;6.668;2022-08-20T08:18:09;21.60;99.90
22071;DHT22;11200;51.488;6.668;2022-08-20T08:20:39;21.60;99.90
22071;DHT22;11200;51.488;6.668;2022-08-20T08:23:07;21.70;99.90
22071;DHT22;11200;51.488;6.668;2022-08-20T08:25:39;21.80;99.90
22071;DHT22;11200;51.488;6.668;2022-08-20T08:28:09;21.80;99.90
22071;DHT22;11200;51.488;6.668;2022-08-20T08:30:37;21.90;99.90
22071;DHT22;11200;51.488;6.668;2022-08-20T08:33:05;22.00;99.90
22071;DHT22;11200;51.488;6.668;2022-08-20T08:35:49;22.00;99.90
22071;DHT22;11200;51.488;6.668;2022-08-20T08:38:15;22.10;99.90
22071;DHT22;11200;51.488;6.668;2022-08-20T08:40:42;22.20;99.90
22071;DHT22;11200;51.488;6.668;2022-08-20T08:43:10;22.30;99.90
22071;DHT22;11200;51.488;6.668;2022-08-20T08:45:44;22.30;99.90
22071;DHT22;11200;51.488;6.668;2022-08-20T08:48:12;22.40;99.90
22071;DHT22;11200;51.488;6.668;2022-08-20T08:50:43;22.60;99.90
22071;DHT22;11200;51.488;6.668;2022-08-20T08:53:19;22.70;99.90
22071;DHT22;11200;51.488;6.668;2022-08-20T08:55:47;22.90;99.90
22071;DHT22;11200;51.488;6.668;2022-08-20T08:58:12;23.00;99.90
22071;DHT22;11200;51.488;6.668;2022-08-20T09:00:38;23.00;99.90
22071;DHT22;11200;51.488;6.668;2022-08-20T09:03:08;23.10;99.90
22071;DHT22;11200;51.488;6.668;2022-08-20T09:05:53;23.20;99.90
22071;DHT22;11200;51.488;6.668;2022-08-20T09:08:24;23.20;99.90
22071;DHT22;11200;51.488;6.668;2022-08-20T09:10:50;23.30;99.90
22071;DHT22;11200;51.488;6.668;2022-08-20T09:13:16;23.40;99.90
22071;DHT22;11200;51.488;6.668;2022-08-20T09:15:42;23.40;99.90
22071;DHT22;11200;51.488;6.668;2022-08-20T09:18:07;23.50;99.90
22071;DHT22;11200;51.488;6.668;2022-08-20T09:20:33;23.60;99.90
22071;DHT22;11200;51.488;6.668;2022-08-20T09:22:59;23.60;99.90
22071;DHT22;11200;51.488;6.668;2022-08-20T09:25:24;23.60;99.90
22071;DHT22;11200;51.488;6.668;2022-08-20T09:27:50;23.60;99.90
22071;DHT22;11200;51.488;6.668;2022-08-20T09:30:17;23.60;99.90
22071;DHT22;11200;51.488;6.668;2022-08-20T09:32:43;23.60;99.90
22071;DHT22;11200;51.488;6.668;2022-08-20T09:35:09;23.70;99.90
22071;DHT22;11200;51.488;6.668;2022-08-20T09:37:35;23.60;99.90
22071;DHT22;11200;51.488;6.668;2022-08-20T09:40:02;23.60;99.90
22071;DHT22;11200;51.488;6.668;2022-08-20T09:42:39;23.60;99.90
22071;DHT22;11200;51.488;6.668;2022-08-20T09:45:12;23.60;99.90
22071;DHT22;11200;51.488;6.668;2022-08-20T09:47:39;23.60;99.90
22071;DHT22;11200;51.488;6.668;2022-08-20T09:50:06;23.60;99.90
22071;DHT22;11200;51.488;6.668;2022-08-20T09:52:34;23.60;99.90
22071;DHT22;11200;51.488;6.668;2022-08-20T09:55:14;23.60;99.90
22071;DHT22;11200;51.488;6.668;2022-08-20T09:57:41;23.60;99.90
22071;DHT22;11200;51.488;6.668;2022-08-20T10:00:07;23.60;99.90
22071;DHT22;11200;51.488;6.668;2022-08-20T10:02:34;23.60;99.90
22071;DHT22;11200;51.488;6.668;2022-08-20T10:05:00;23.50;99.90
22071;DHT22;11200;51.488;6.668;2022-08-20T10:07:25;23.90;99.90
22071;DHT22;11200;51.488;6.668;2022-08-20T10:09:51;24.00;99.90
22071;DHT22;11200;51.488;6.668;2022-08-20T10:12:17;24.10;99.90
22071;DHT22;11200;51.488;6.668;2022-08-20T10:14:42;24.30;99.90
22071;DHT22;11200;51.488;6.668;2022-08-20T10:17:08;24.30;99.90
22071;DHT22;11200;51.488;6.668;2022-08-20T10:19:34;24.50;99.90
22071;DHT22;11200;51.488;6.668;2022-08-20T10:22:00;24.70;99.90
22071;DHT22;11200;51.488;6.668;2022-08-20T10:24:26;25.00;99.90
22071;DHT22;11200;51.488;6.668;2022-08-20T10:26:56;25.20;99.90
22071;DHT22;11200;51.488;6.668;2022-08-20T10:29:23;25.50;99.90
22071;DHT22;11200;51.488;6.668;2022-08-20T10:31:49;25.70;99.90
22071;DHT22;11200;51.488;6.668;2022-08-20T10:34:14;25.90;99.90
22071;DHT22;11200;51.488;6.668;2022-08-20T10:36:41;26.10;99.90
22071;DHT22;11200;51.488;6.668;2022-08-20T10:39:07;26.30;99.90
22071;DHT22;11200;51.488;6.668;2022-08-20T10:41:33;26.50;99.90
22071;DHT22;11200;51.488;6.668;2022-08-20T10:43:58;26.60;99.90
22071;DHT22;11200;51.488;6.668;2022-08-20T10:46:24;26.70;99.90
22071;DHT22;11200;51.488;6.668;2022-08-20T10:48:50;26.70;99.90
22071;DHT22;11200;51.488;6.668;2022-08-20T10:51:15;26.80;99.90
22071;DHT22;11200;51.488;6.668;2022-08-20T10:53:41;26.80;99.90
22071;DHT22;11200;51.488;6.668;2022-08-20T10:56:06;26.80;99.90
22071;DHT22;11200;51.488;6.668;2022-08-20T10:58:32;26.80;99.90
22071;DHT22;11200;51.488;6.668;2022-08-20T11:00:58;26.80;99.90
22071;DHT22;11200;51.488;6.668;2022-08-20T11:03:23;26.80;99.90
22071;DHT22;11200;51.488;6.668;2022-08-20T11:05:49;26.90;99.90
22071;DHT22;11200;51.488;6.668;2022-08-20T11:08:15;27.00;99.90
22071;DHT22;11200;51.488;6.668;2022-08-20T11:10:41;27.10;99.90
22071;DHT22;11200;51.488;6.668;2022-08-20T11:13:07;27.20;99.90
22071;DHT22;11200;51.488;6.668;2022-08-20T11:15:36;27.20;99.90
22071;DHT22;11200;51.488;6.668;2022-08-20T11:18:03;27.30;99.90
22071;DHT22;11200;51.488;6.668;2022-08-20T11:20:29;27.30;99.90
22071;DHT22;11200;51.488;6.668;2022-08-20T11:22:56;27.30;99.90
22071;DHT22;11200;51.488;6.668;2022-08-20T11:25:22;27.30;99.90
22071;DHT22;11200;51.488;6.668;2022-08-20T11:27:49;27.30;99.90
22071;DHT22;11200;51.488;6.668;2022-08-20T11:30:26;27.30;99.90
22071;DHT22;11200;51.488;6.668;2022-08-20T11:32:52;27.30;99.90
22071;DHT22;11200;51.488;6.668;2022-08-20T11:35:18;27.40;99.90
22071;DHT22;11200;51.488;6.668;2022-08-20T11:37:46;27.40;99.90
22071;DHT22;11200;51.488;6.668;2022-08-20T11:40:12;27.40;99.90
22071;DHT22;11200;51.488;6.668;2022-08-20T11:42:38;27.40;99.90
22071;DHT22;11200;51.488;6.668;2022-08-20T11:45:05;27.40;99.90
22071;DHT22;11200;51.488;6.668;2022-08-20T11:47:31;27.60;99.90
22071;DHT22;11200;51.488;6.668;2022-08-20T11:50:00;27.70;99.90
22071;DHT22;11200;51.488;6.668;2022-08-20T11:52:27;27.90;99.90
22071;DHT22;11200;51.488;6.668;2022-08-20T11:54:52;27.90;99.90
22071;DHT22;11200;51.488;6.668;2022-08-20T11:57:22;28.00;99.90
22071;DHT22;11200;51.488;6.668;2022-08-20T11:59:52;28.00;99.90
22071;DHT22;11200;51.488;6.668;2022-08-20T12:02:19;28.10;99.90
22071;DHT22;11200;51.488;6.668;2022-08-20T12:04:46;28.10;99.90
22071;DHT22;11200;51.488;6.668;2022-08-20T12:07:15;28.10;99.90
22071;DHT22;11200;51.488;6.668;2022-08-20T12:09:41;28.00;99.90
22071;DHT22;11200;51.488;6.668;2022-08-20T12:12:08;28.00;99.90
22071;DHT22;11200;51.488;6.668;2022-08-20T12:14:34;28.00;99.90
22071;DHT22;11200;51.488;6.668;2022-08-20T12:19:39;27.90;99.90
22071;DHT22;11200;51.488;6.668;2022-08-20T12:22:05;27.80;99.90
22071;DHT22;11200;51.488;6.668;2022-08-20T12:24:31;27.70;99.90
22071;DHT22;11200;51.488;6.668;2022-08-20T12:27:14;27.60;99.90
22071;DHT22;11200;51.488;6.668;2022-08-20T12:29:41;27.50;99.90
22071;DHT22;11200;51.488;6.668;2022-08-20T12:32:08;27.40;99.90
22071;DHT22;11200;51.488;6.668;2022-08-20T12:34:35;27.30;99.90
22071;DHT22;11200;51.488;6.668;2022-08-20T12:37:10;27.20;99.90
22071;DHT22;11200;51.488;6.668;2022-08-20T12:39:41;27.10;99.90
22071;DHT22;11200;51.488;6.668;2022-08-20T12:42:07;26.90;99.90
22071;DHT22;11200;51.488;6.668;2022-08-20T12:44:33;26.80;99.90
22071;DHT22;11200;51.488;6.668;2022-08-20T12:47:09;26.80;99.90
22071;DHT22;11200;51.488;6.668;2022-08-20T12:49:36;26.70;99.90
22071;DHT22;11200;51.488;6.668;2022-08-20T12:52:02;26.60;99.90
22071;DHT22;11200;51.488;6.668;2022-08-20T12:54:28;26.50;99.90
22071;DHT22;11200;51.488;6.668;2022-08-20T12:56:54;26.50;99.90
22071;DHT22;11200;51.488;6.668;2022-08-20T12:59:22;26.40;99.90
22071;DHT22;11200;51.488;6.668;2022-08-20T13:01:49;26.40;99.90
22071;DHT22;11200;51.488;6.668;2022-08-20T13:04:14;26.40;99.90
22071;DHT22;11200;51.488;6.668;2022-08-20T13:06:40;26.30;99.90
22071;DHT22;11200;51.488;6.668;2022-08-20T13:09:05;26.40;99.90
22071;DHT22;11200;51.488;6.668;2022-08-20T13:11:31;26.30;99.90
22071;DHT22;11200;51.488;6.668;2022-08-20T13:13:58;26.30;99.90
22071;DHT22;11200;51.488;6.668;2022-08-20T13:16:23;26.30;99.90
22071;DHT22;11200;51.488;6.668;2022-08-20T13:18:49;26.30;99.90
22071;DHT22;11200;51.488;6.668;2022-08-20T13:21:15;26.30;99.90
22071;DHT22;11200;51.488;6.668;2022-08-20T13:23:40;26.30;99.90
22071;DHT22;11200;51.488;6.668;2022-08-20T13:26:06;26.30;99.90
22071;DHT22;11200;51.488;6.668;2022-08-20T13:28:32;26.30;99.90
22071;DHT22;11200;51.488;6.668;2022-08-20T13:30:58;26.30;99.90
22071;DHT22;11200;51.488;6.668;2022-08-20T13:33:27;26.30;99.90
22071;DHT22;11200;51.488;6.668;2022-08-20T13:35:53;26.30;99.90
22071;DHT22;11200;51.488;6.668;2022-08-20T13:38:18;26.30;99.90
22071;DHT22;11200;51.488;6.668;2022-08-20T13:40:44;26.40;99.90
22071;DHT22;11200;51.488;6.668;2022-08-20T13:43:10;26.40;99.90
22071;DHT22;11200;51.488;6.668;2022-08-20T13:45:36;26.40;99.90
22071;DHT22;11200;51.488;6.668;2022-08-20T13:48:03;26.40;99.90
22071;DHT22;11200;51.488;6.668;2022-08-20T13:50:29;26.40;99.90
22071;DHT22;11200;51.488;6.668;2022-08-20T13:52:54;26.40;99.90
22071;DHT22;11200;51.488;6.668;2022-08-20T13:55:22;26.40;99.90
22071;DHT22;11200;51.488;6.668;2022-08-20T13:57:48;26.40;99.90
22071;DHT22;11200;51.488;6.668;2022-08-20T14:00:22;26.30;99.90
22071;DHT22;11200;51.488;6.668;2022-08-20T14:02:48;26.30;99.90
22071;DHT22;11200;51.488;6.668;2022-08-20T14:05:14;26.30;99.90
22071;DHT22;11200;51.488;6.668;2022-08-20T14:07:43;26.40;99.90
22071;DHT22;11200;51.488;6.668;2022-08-20T14:10:13;26.30;99.90
22071;DHT22;11200;51.488;6.668;2022-08-20T14:12:39;26.30;99.90
22071;DHT22;11200;51.488;6.668;2022-08-20T14:15:06;26.30;99.90
22071;DHT22;11200;51.488;6.668;2022-08-20T14:17:39;26.40;99.90
22071;DHT22;11200;51.488;6.668;2022-08-20T14:20:12;26.30;99.90
22071;DHT22;11200;51.488;6.668;2022-08-20T14:22:40;26.30;99.90
22071;DHT22;11200;51.488;6.668;2022-08-20T14:25:08;26.30;99.90
22071;DHT22;11200;51.488;6.668;2022-08-20T14:27:35;26.30;99.90
22071;DHT22;11200;51.488;6.668;2022-08-20T14:30:03;26.30;99.90
22071;DHT22;11200;51.488;6.668;2022-08-20T14:32:29;26.20;99.90
22071;DHT22;11200;51.488;6.668;2022-08-20T14:34:55;26.30;99.90
22071;DHT22;11200;51.488;6.668;2022-08-20T14:37:26;26.30;99.90
22071;DHT22;11200;51.488;6.668;2022-08-20T14:39:54;26.40;99.90
22071;DHT22;11200;51.488;6.668;2022-08-20T14:42:21;26.40;99.90
22071;DHT22;11200;51.488;6.668;2022-08-20T14:44:49;26.50;99.90
22071;DHT22;11200;51.488;6.668;2022-08-20T14:47:27;26.50;99.90
22071;DHT22;11200;51.488;6.668;2022-08-20T14:49:54;26.50;99.90
22071;DHT22;11200;51.488;6.668;2022-08-20T14:52:22;26.50;99.90
22071;DHT22;11200;51.488;6.668;2022-08-20T14:54:49;26.50;99.90
22071;DHT22;11200;51.488;6.668;2022-08-20T14:57:16;26.50;99.90
22071;DHT22;11200;51.488;6.668;2022-08-20T14:59:43;26.50;99.90
22071;DHT22;11200;51.488;6.668;2022-08-20T15:02:10;26.50;99.90
22071;DHT22;11200;51.488;6.668;2022-08-20T15:04:37;26.40;99.90
22071;DHT22;11200;51.488;6.668;2022-08-20T15:07:05;26.40;99.90
22071;DHT22;11200;51.488;6.668;2022-08-20T15:09:33;26.40;99.90
22071;DHT22;11200;51.488;6.668;2022-08-20T15:11:59;26.40;99.90
22071;DHT22;11200;51.488;6.668;2022-08-20T15:14:26;26.40;99.90
22071;DHT22;11200;51.488;6.668;2022-08-20T15:16:52;26.40;99.90
22071;DHT22;11200;51.488;6.668;2022-08-20T15:19:18;26.40;99.90
22071;DHT22;11200;51.488;6.668;2022-08-20T15:21:44;26.40;99.90
22071;DHT22;11200;51.488;6.668;2022-08-20T15:24:10;26.30;99.90
22071;DHT22;11200;51.488;6.668;2022-08-20T15:26:35;26.30;99.90
22071;DHT22;11200;51.488;6.668;2022-08-20T15:29:01;26.20;99.90
22071;DHT22;11200;51.488;6.668;2022-08-20T15:31:27;26.20;99.90
22071;DHT22;11200;51.488;6.668;2022-08-20T15:33:52;26.20;99.90
22071;DHT22;11200;51.488;6.668;2022-08-20T15:36:18;26.20;99.90
22071;DHT22;11200;51.488;6.668;2022-08-20T15:38:44;26.20;99.90
22071;DHT22;11200;51.488;6.668;2022-08-20T15:41:10;26.10;99.90